PROFILE

 METAR AND TAF INFORMATION
ADDS - METARS form results

(2222 UTC 10 December 2018)
http://aviationweather.gov/metar/data/
 
LFRD 102200Z AUTO 24006KT 9999 SCT036 07/05 Q1029 NOSIG
LFRD 102130Z AUTO 23005KT 9999 BKN036 07/06 Q1029 NOSIG
TAF LFRD 101700Z 1018/1118 30007KT 9999 BKN030 BECMG 1019/1021 21005KT BECMG 1108/1110 16010KT BECMG 1116/1118 BKN006 

 AIRPORT MAP

 RUNWAY INFORMATION
Runway 12 Runway length 4708 ft Runway width 148 ft
Runway elevation 209 ft Runway displaced threshold 0 ft Runway heading 115
Runway 30 Runway length 4708 ft Runway width 148 ft
Runway elevation 213 ft Runway displaced threshold 476 ft Runway heading 295
Runway 17 Runway length 7218 ft Runway width 148 ft
Runway elevation 193 ft Runway displaced threshold 0 ft Runway heading 170
Runway 35 Runway length 7218 ft Runway width 148 ft
Runway elevation 198 ft Runway displaced threshold 0 ft Runway heading 350

 AIRPORT FREQUENCIES
Type ATIS Name DINARD ATI Frequency 124.575 MHZ
Type TWR Name DINARD TWR Frequency 120.15 MHZ

 AIRPORT NEAR NAVIGATION AIDS
Type VOR-DME Name Dinard Frequency 114300 KHZ